createdAt,value
2016-10-19T00:00:21.745Z,1011.7
2016-10-19T00:01:21.765Z,1011.7
2016-10-19T00:02:21.786Z,1011.73
2016-10-19T00:03:21.860Z,1011.7
2016-10-19T00:04:21.832Z,1011.7
2016-10-19T00:05:21.854Z,1011.69
2016-10-19T00:07:21.898Z,1011.66
2016-10-19T00:08:21.917Z,1011.68
2016-10-19T00:09:21.939Z,1011.66
2016-10-19T00:10:21.964Z,1011.66
2016-10-19T00:11:21.986Z,1011.64
2016-10-19T00:12:22.007Z,1011.6
2016-10-19T00:13:22.029Z,1011.65
2016-10-19T00:14:22.051Z,1011.63
2016-10-19T00:15:22.072Z,1011.6
2016-10-19T00:16:22.092Z,1011.6
2016-10-19T00:17:22.117Z,1011.55
2016-10-19T00:18:22.136Z,1011.51
2016-10-19T00:19:22.158Z,1011.56
2016-10-19T00:20:22.180Z,1011.55
2016-10-19T00:21:22.202Z,1011.55
2016-10-19T00:22:22.224Z,1011.48
2016-10-19T00:23:22.247Z,1011.46
2016-10-19T00:24:22.267Z,1011.48
2016-10-19T00:25:22.289Z,1011.46
2016-10-19T00:26:22.311Z,1011.44
2016-10-19T00:27:22.333Z,1011.45
2016-10-19T00:28:22.357Z,1011.44
2016-10-19T00:29:22.378Z,1011.42
2016-10-19T00:30:22.399Z,1011.44
2016-10-19T00:31:22.422Z,1011.47
2016-10-19T00:32:22.444Z,1011.43
2016-10-19T00:33:22.466Z,1011.43
2016-10-19T00:34:22.487Z,1011.46
2016-10-19T00:35:22.506Z,1011.39
2016-10-19T00:36:22.830Z,1011.39
2016-10-19T00:37:22.551Z,1011.39
2016-10-19T00:39:22.595Z,1011.31
2016-10-19T00:40:22.619Z,1011.26
2016-10-19T00:41:22.639Z,1011.25
2016-10-19T00:42:22.662Z,1011.26
2016-10-19T00:43:22.682Z,1011.28
2016-10-19T00:44:22.704Z,1011.25
2016-10-19T00:45:22.725Z,1011.3
2016-10-19T00:46:22.749Z,1011.32
2016-10-19T00:47:22.770Z,1011.28
2016-10-19T00:48:22.793Z,1011.29
2016-10-19T00:49:22.813Z,1011.28
2016-10-19T00:50:22.835Z,1011.27
2016-10-19T00:51:22.857Z,1011.2
2016-10-19T00:52:22.882Z,1011.17
2016-10-19T00:53:22.903Z,1011.15
2016-10-19T00:55:22.945Z,1011.17
2016-10-19T00:56:22.970Z,1011.14
2016-10-19T00:57:22.990Z,1011.13
2016-10-19T00:58:23.014Z,1011.11
2016-10-19T00:59:23.031Z,1011.09
2016-10-19T01:00:23.056Z,1011.09
2016-10-19T01:01:23.076Z,1011.05
2016-10-19T01:02:23.097Z,1011.05
2016-10-19T01:03:23.119Z,1011.09
2016-10-19T01:04:23.294Z,1011.02
2016-10-19T01:05:23.165Z,1011.01
2016-10-19T01:06:23.186Z,1011.03
2016-10-19T01:07:23.208Z,1010.99
2016-10-19T01:08:23.229Z,1010.98
2016-10-19T01:09:23.251Z,1010.97
2016-10-19T01:11:23.294Z,1010.94
2016-10-19T01:12:23.316Z,1010.96
2016-10-19T01:13:23.341Z,1010.95
2016-10-19T01:14:23.360Z,1010.95
2016-10-19T01:15:23.384Z,1010.97
2016-10-19T01:16:23.406Z,1010.94
2016-10-19T01:17:23.426Z,1010.97
2016-10-19T01:18:23.447Z,1010.91
2016-10-19T01:19:23.474Z,1010.91
2016-10-19T01:20:23.492Z,1010.95
2016-10-19T01:21:23.515Z,1010.91
2016-10-19T01:22:23.537Z,1010.9
2016-10-19T01:23:23.557Z,1010.89
2016-10-19T01:24:23.581Z,1010.88
2016-10-19T01:25:23.600Z,1010.82
2016-10-19T01:27:23.647Z,1010.84
2016-10-19T01:28:23.669Z,1010.85
2016-10-19T01:29:23.690Z,1010.88
2016-10-19T01:30:23.963Z,1010.83
2016-10-19T01:31:23.732Z,1010.85
2016-10-19T01:32:23.755Z,1010.78
2016-10-19T01:33:23.777Z,1010.77
2016-10-19T01:34:23.799Z,1010.68
2016-10-19T01:35:23.819Z,1010.68
2016-10-19T01:36:23.843Z,1010.7
2016-10-19T01:37:23.863Z,1010.7
2016-10-19T01:38:23.885Z,1010.71
2016-10-19T01:39:23.907Z,1010.7
2016-10-19T01:40:23.931Z,1010.71
2016-10-19T01:42:23.973Z,1010.66
2016-10-19T01:43:23.995Z,1010.66
2016-10-19T01:44:24.018Z,1010.66
2016-10-19T01:45:24.088Z,1010.64
2016-10-19T01:46:24.061Z,1010.65
2016-10-19T01:47:24.084Z,1010.65
2016-10-19T01:48:24.106Z,1010.65
2016-10-19T01:49:24.376Z,1010.65
2016-10-19T01:50:24.149Z,1010.65
2016-10-19T01:51:24.169Z,1010.67
2016-10-19T01:52:24.194Z,1010.6
2016-10-19T01:53:24.214Z,1010.64
2016-10-19T01:54:24.235Z,1010.6
2016-10-19T01:55:24.257Z,1010.59
2016-10-19T01:56:24.281Z,1010.6
2016-10-19T01:57:24.301Z,1010.57
2016-10-19T01:58:24.322Z,1010.55
2016-10-19T01:59:24.344Z,1010.55
2016-10-19T02:00:24.368Z,1010.55
2016-10-19T02:01:24.387Z,1010.54
2016-10-19T02:02:24.409Z,1010.55
2016-10-19T02:03:24.434Z,1010.56
2016-10-19T02:04:24.453Z,1010.54
2016-10-19T02:05:24.474Z,1010.52
2016-10-19T02:06:24.499Z,1010.47
2016-10-19T02:07:24.519Z,1010.5
2016-10-19T02:08:24.543Z,1010.45
2016-10-19T02:09:24.564Z,1010.42
2016-10-19T02:10:24.586Z,1010.45
2016-10-19T02:11:24.606Z,1010.42
2016-10-19T02:12:24.629Z,1010.42
2016-10-19T02:14:24.671Z,1010.35
2016-10-19T02:15:24.695Z,1010.35
2016-10-19T02:16:24.716Z,1010.32
2016-10-19T02:17:24.739Z,1010.34
2016-10-19T02:18:24.760Z,1010.33
2016-10-19T02:19:24.783Z,1010.34
2016-10-19T02:20:24.803Z,1010.32
2016-10-19T02:21:24.826Z,1010.31
2016-10-19T02:22:24.848Z,1010.3
2016-10-19T02:23:24.867Z,1010.24
2016-10-19T02:24:24.890Z,1010.25
2016-10-19T02:25:24.911Z,1010.24
2016-10-19T02:26:24.936Z,1010.24
2016-10-19T02:27:24.957Z,1010.22
2016-10-19T02:28:24.977Z,1010.21
2016-10-19T02:30:25.022Z,1010.18
2016-10-19T02:31:25.045Z,1010.19
2016-10-19T02:32:25.067Z,1010.15
2016-10-19T02:33:25.089Z,1010.17
2016-10-19T02:34:25.108Z,1010.14
2016-10-19T02:35:25.132Z,1010.12
2016-10-19T02:36:25.156Z,1010.16
2016-10-19T02:37:25.174Z,1010.13
2016-10-19T02:38:25.196Z,1010.1
2016-10-19T02:39:25.219Z,1010.1
2016-10-19T02:40:25.240Z,1010.09
2016-10-19T02:41:25.262Z,1010.09
2016-10-19T02:42:25.285Z,1010.07
2016-10-19T02:43:25.408Z,1010.08
2016-10-19T02:44:25.328Z,1010.08
2016-10-19T02:46:25.373Z,1010.06
2016-10-19T02:47:25.393Z,1010.06
2016-10-19T02:48:25.418Z,1010.05
2016-10-19T02:49:25.437Z,1010.05
2016-10-19T02:50:25.459Z,1010.05
2016-10-19T02:51:25.480Z,1010.03
2016-10-19T02:52:25.754Z,1010.01
2016-10-19T02:53:25.529Z,1010
2016-10-19T02:54:25.548Z,1009.97
2016-10-19T02:55:25.569Z,1009.97
2016-10-19T02:56:25.590Z,1009.95
2016-10-19T02:57:25.612Z,1009.96
2016-10-19T02:58:25.634Z,1009.91
2016-10-19T02:59:25.656Z,1009.89
2016-10-19T03:00:25.677Z,1009.89
2016-10-19T03:02:25.722Z,1009.91
2016-10-19T03:03:25.746Z,1009.86
2016-10-19T03:04:25.765Z,1009.86
2016-10-19T03:05:25.788Z,1009.8
2016-10-19T03:06:25.810Z,1009.83
2016-10-19T03:07:25.838Z,1009.8
2016-10-19T03:08:25.855Z,1009.78
2016-10-19T03:09:25.874Z,1009.76
2016-10-19T03:10:25.897Z,1009.78
2016-10-19T03:11:25.921Z,1009.74
2016-10-19T03:12:25.943Z,1009.69
2016-10-19T03:13:25.966Z,1009.73
2016-10-19T03:14:25.987Z,1009.71
2016-10-19T03:15:26.008Z,1009.75
2016-10-19T03:17:26.055Z,1009.67
2016-10-19T03:18:26.075Z,1009.65
2016-10-19T03:19:26.098Z,1009.62
2016-10-19T03:20:26.118Z,1009.63
2016-10-19T03:21:26.142Z,1009.62
2016-10-19T03:22:26.163Z,1009.6
2016-10-19T03:23:26.184Z,1009.59
2016-10-19T03:24:26.206Z,1009.59
2016-10-19T03:25:26.229Z,1009.58
2016-10-19T03:26:26.251Z,1009.61
2016-10-19T03:27:26.272Z,1009.56
2016-10-19T03:28:26.296Z,1009.56
2016-10-19T03:29:26.317Z,1009.54
2016-10-19T03:30:26.337Z,1009.52
2016-10-19T03:31:26.359Z,1009.52
2016-10-19T03:32:26.382Z,1009.51
2016-10-19T03:33:26.405Z,1009.47
2016-10-19T03:34:26.425Z,1009.48
2016-10-19T03:35:26.450Z,1009.47
2016-10-19T03:36:26.467Z,1009.48
2016-10-19T03:37:26.493Z,1009.47
2016-10-19T03:38:26.513Z,1009.47
2016-10-19T03:39:26.537Z,1009.45
2016-10-19T03:40:26.556Z,1009.48
2016-10-19T03:41:26.578Z,1009.52
2016-10-19T03:42:26.602Z,1009.47
2016-10-19T03:43:26.625Z,1009.51
2016-10-19T03:44:26.644Z,1009.5
2016-10-19T03:45:26.666Z,1009.48
2016-10-19T03:46:26.688Z,1009.47
2016-10-19T03:47:26.711Z,1009.49
2016-10-19T03:49:26.756Z,1009.47
2016-10-19T03:50:26.775Z,1009.48
2016-10-19T03:51:26.797Z,1009.49
2016-10-19T03:52:26.821Z,1009.44
2016-10-19T03:53:26.843Z,1009.51
2016-10-19T03:54:26.863Z,1009.49
2016-10-19T03:55:26.884Z,1009.46
2016-10-19T03:56:26.906Z,1009.46
2016-10-19T03:57:26.930Z,1009.48
2016-10-19T03:58:26.952Z,1009.45
2016-10-19T03:59:26.974Z,1009.43
2016-10-19T04:00:26.994Z,1009.43
2016-10-19T04:01:27.016Z,1009.45
2016-10-19T04:02:27.037Z,1009.44
2016-10-19T04:03:27.059Z,1009.43
2016-10-19T04:05:27.106Z,1009.42
2016-10-19T04:06:27.125Z,1009.41
2016-10-19T04:07:27.149Z,1009.43
2016-10-19T04:08:27.169Z,1009.43
2016-10-19T04:09:27.192Z,1009.43
2016-10-19T04:10:27.214Z,1009.43
2016-10-19T04:11:27.234Z,1009.39
2016-10-19T04:12:27.259Z,1009.4
2016-10-19T04:13:27.279Z,1009.39
2016-10-19T04:14:27.300Z,1009.41
2016-10-19T04:15:27.322Z,1009.42
2016-10-19T04:16:27.346Z,1009.37
2016-10-19T04:17:27.367Z,1009.38
2016-10-19T04:18:27.389Z,1009.38
2016-10-19T04:19:27.411Z,1009.37
2016-10-19T04:21:27.452Z,1009.39
2016-10-19T04:22:27.476Z,1009.35
2016-10-19T04:23:27.498Z,1009.34
2016-10-19T04:24:27.520Z,1009.36
2016-10-19T04:25:27.542Z,1009.36
2016-10-19T04:26:27.561Z,1009.36
2016-10-19T04:27:27.583Z,1009.33
2016-10-19T04:28:27.607Z,1009.35
2016-10-19T04:29:27.626Z,1009.33
2016-10-19T04:30:27.649Z,1009.27
2016-10-19T04:31:27.669Z,1009.26
2016-10-19T04:32:27.692Z,1009.28
2016-10-19T04:33:27.716Z,1009.29
2016-10-19T04:34:27.738Z,1009.27
2016-10-19T04:35:27.759Z,1009.27
2016-10-19T04:37:27.803Z,1009.26
2016-10-19T04:38:27.822Z,1009.23
2016-10-19T04:39:27.844Z,1009.25
2016-10-19T04:40:27.866Z,1009.24
2016-10-19T04:41:27.888Z,1009.2
2016-10-19T04:42:27.909Z,1009.22
2016-10-19T04:43:27.932Z,1009.23
2016-10-19T04:44:27.953Z,1009.21
2016-10-19T04:45:27.977Z,1009.18
2016-10-19T04:46:27.996Z,1009.17
2016-10-19T04:47:28.020Z,1009.14
2016-10-19T04:48:28.040Z,1009.15
2016-10-19T04:49:28.064Z,1009.1
2016-10-19T04:50:28.084Z,1009.11
2016-10-19T04:52:28.130Z,1009.07
2016-10-19T04:53:28.151Z,1009.1
2016-10-19T04:54:28.171Z,1009.12
2016-10-19T04:55:28.195Z,1009.06
2016-10-19T04:56:28.215Z,1009.07
2016-10-19T04:57:28.236Z,1009.12
2016-10-19T04:58:28.260Z,1009.05
2016-10-19T04:59:28.280Z,1009.09
2016-10-19T05:00:28.303Z,1009.1
2016-10-19T05:01:28.323Z,1009.04
2016-10-19T05:02:28.347Z,1009.06
2016-10-19T05:03:28.367Z,1009.02
2016-10-19T05:04:28.390Z,1009.03
2016-10-19T05:05:28.411Z,1009
2016-10-19T05:06:28.434Z,1009
2016-10-19T05:07:28.456Z,1008.98
2016-10-19T05:08:28.477Z,1008.99
2016-10-19T05:09:28.499Z,1008.94
2016-10-19T05:10:28.521Z,1008.97
2016-10-19T05:11:28.543Z,1008.99
2016-10-19T05:12:28.564Z,1008.98
2016-10-19T05:13:28.586Z,1008.98
2016-10-19T05:14:28.907Z,1009
2016-10-19T05:15:28.627Z,1008.96
2016-10-19T05:16:28.649Z,1008.98
2016-10-19T05:17:28.671Z,1009
2016-10-19T05:18:28.694Z,1008.94
2016-10-19T05:19:28.714Z,1008.95
2016-10-19T05:20:28.738Z,1009.01
2016-10-19T05:21:28.760Z,1009
2016-10-19T05:22:28.781Z,1008.99
2016-10-19T05:24:28.823Z,1009.01
2016-10-19T05:25:28.848Z,1009.01
2016-10-19T05:26:28.869Z,1009.01
2016-10-19T05:27:28.891Z,1008.98
2016-10-19T05:29:28.935Z,1008.97
2016-10-19T05:30:28.956Z,1008.95
2016-10-19T05:31:28.978Z,1008.96
2016-10-19T05:32:29.000Z,1008.93
2016-10-19T05:33:29.019Z,1008.91
2016-10-19T05:34:29.043Z,1008.88
2016-10-19T05:35:29.063Z,1008.87
2016-10-19T05:36:29.087Z,1008.92
2016-10-19T05:37:29.108Z,1008.93
2016-10-19T05:38:29.129Z,1008.92
2016-10-19T05:40:29.174Z,1008.89
2016-10-19T05:41:29.193Z,1008.93
2016-10-19T05:42:29.217Z,1008.93
2016-10-19T05:43:29.237Z,1008.91
2016-10-19T05:44:29.258Z,1008.94
2016-10-19T05:45:29.282Z,1008.94
2016-10-19T05:46:29.304Z,1008.94
2016-10-19T05:47:29.324Z,1008.96
2016-10-19T05:48:29.345Z,1008.93
2016-10-19T05:49:29.369Z,1008.95
2016-10-19T05:50:29.389Z,1008.94
2016-10-19T05:51:29.413Z,1008.96
2016-10-19T05:52:29.432Z,1009
2016-10-19T05:53:29.456Z,1008.98
2016-10-19T05:54:29.478Z,1008.97
2016-10-19T05:56:29.521Z,1008.97
2016-10-19T05:57:29.544Z,1008.94
2016-10-19T05:58:29.562Z,1008.95
2016-10-19T05:59:29.586Z,1008.95
2016-10-19T06:00:29.609Z,1008.96
2016-10-19T06:01:29.630Z,1009
2016-10-19T06:02:29.650Z,1008.97
2016-10-19T06:03:29.672Z,1008.98
2016-10-19T06:04:29.694Z,1008.97
2016-10-19T06:05:29.716Z,1008.98
2016-10-19T06:06:29.737Z,1008.98
2016-10-19T06:07:29.759Z,1009.03
2016-10-19T06:08:29.784Z,1009.01
2016-10-19T06:09:29.803Z,1009.02
2016-10-19T06:10:29.826Z,1009.04
2016-10-19T06:12:29.868Z,1009.04
2016-10-19T06:13:29.892Z,1009.06
2016-10-19T06:14:29.912Z,1009.03
2016-10-19T06:15:29.933Z,1009.01
2016-10-19T06:16:29.957Z,1009.01
2016-10-19T06:17:29.976Z,1009.04
2016-10-19T06:18:30.001Z,1009.07
2016-10-19T06:19:30.020Z,1009.11
2016-10-19T06:20:30.292Z,1009.12
2016-10-19T06:21:30.063Z,1009.11
2016-10-19T06:22:30.087Z,1009.12
2016-10-19T06:23:30.110Z,1009.16
2016-10-19T06:24:30.132Z,1009.12
2016-10-19T06:25:30.151Z,1009.16
2016-10-19T06:27:30.195Z,1009.17
2016-10-19T06:28:30.218Z,1009.18
2016-10-19T06:29:30.238Z,1009.2
2016-10-19T06:30:30.261Z,1009.19
2016-10-19T06:31:30.282Z,1009.19
2016-10-19T06:32:30.305Z,1009.2
2016-10-19T06:33:30.325Z,1009.21
2016-10-19T06:34:30.349Z,1009.2
2016-10-19T06:35:30.370Z,1009.24
2016-10-19T06:36:30.389Z,1009.26
2016-10-19T06:37:30.411Z,1009.25
2016-10-19T06:38:30.436Z,1009.27
2016-10-19T06:39:30.454Z,1009.28
2016-10-19T06:40:30.476Z,1009.3
2016-10-19T06:41:30.498Z,1009.33
2016-10-19T06:42:30.521Z,1009.39
2016-10-19T06:43:30.540Z,1009.34
2016-10-19T06:44:30.565Z,1009.34
2016-10-19T06:45:30.588Z,1009.37
2016-10-19T06:46:30.607Z,1009.36
2016-10-19T06:47:30.628Z,1009.39
2016-10-19T06:48:30.651Z,1009.36
2016-10-19T06:49:30.670Z,1009.35
2016-10-19T06:50:30.691Z,1009.36
2016-10-19T06:51:30.713Z,1009.37
2016-10-19T06:52:30.736Z,1009.32
2016-10-19T06:53:30.757Z,1009.35
2016-10-19T06:54:30.780Z,1009.31
2016-10-19T06:55:30.802Z,1009.32
2016-10-19T06:56:30.821Z,1009.34
2016-10-19T06:57:30.844Z,1009.3
2016-10-19T06:59:30.886Z,1009.29
2016-10-19T07:00:30.908Z,1009.29
2016-10-19T07:01:30.931Z,1009.28
2016-10-19T07:02:30.950Z,1009.29
2016-10-19T07:03:30.972Z,1009.3
2016-10-19T07:04:30.996Z,1009.29
2016-10-19T07:05:31.017Z,1009.27
2016-10-19T07:06:31.039Z,1009.27
2016-10-19T07:07:31.060Z,1009.31
2016-10-19T07:08:31.079Z,1009.33
2016-10-19T07:09:31.101Z,1009.34
2016-10-19T07:10:31.123Z,1009.35
2016-10-19T07:11:31.144Z,1009.34
2016-10-19T07:12:31.165Z,1009.36
2016-10-19T07:13:31.189Z,1009.32
2016-10-19T07:15:31.231Z,1009.39
2016-10-19T07:16:31.254Z,1009.39
2016-10-19T07:17:31.276Z,1009.4
2016-10-19T07:18:31.296Z,1009.43
2016-10-19T07:19:31.319Z,1009.44
2016-10-19T07:20:31.338Z,1009.39
2016-10-19T07:21:31.362Z,1009.43
2016-10-19T07:22:31.384Z,1009.41
2016-10-19T07:23:31.405Z,1009.4
2016-10-19T07:24:31.426Z,1009.46
2016-10-19T07:25:31.449Z,1009.43
2016-10-19T07:26:31.469Z,1009.45
2016-10-19T07:27:31.492Z,1009.49
2016-10-19T07:28:31.511Z,1009.47
2016-10-19T07:29:31.534Z,1009.46
2016-10-19T07:31:31.579Z,1009.43
2016-10-19T07:32:31.601Z,1009.46
2016-10-19T07:33:31.622Z,1009.44
2016-10-19T07:34:31.644Z,1009.43
2016-10-19T07:35:31.665Z,1009.4
2016-10-19T07:36:31.687Z,1009.4
2016-10-19T07:37:31.709Z,1009.37
2016-10-19T07:38:31.728Z,1009.4
2016-10-19T07:39:31.750Z,1009.42
2016-10-19T07:40:31.774Z,1009.45
2016-10-19T07:41:31.792Z,1009.49
2016-10-19T07:42:31.816Z,1009.45
2016-10-19T07:43:31.838Z,1009.45
2016-10-19T07:44:31.860Z,1009.49
2016-10-19T07:45:31.879Z,1009.5
2016-10-19T07:47:31.922Z,1009.51
2016-10-19T07:48:31.944Z,1009.54
2016-10-19T07:49:31.965Z,1009.52
2016-10-19T07:50:31.988Z,1009.52
2016-10-19T07:51:32.011Z,1009.57
2016-10-19T07:52:32.032Z,1009.56
2016-10-19T07:53:32.051Z,1009.58
2016-10-19T07:54:32.075Z,1009.56
2016-10-19T07:55:32.097Z,1009.58
2016-10-19T07:56:32.117Z,1009.56
2016-10-19T07:57:32.138Z,1009.55
2016-10-19T07:58:32.162Z,1009.57
2016-10-19T08:00:32.203Z,1009.57
2016-10-19T08:02:32.249Z,1009.56
2016-10-19T08:03:32.269Z,1009.55
2016-10-19T08:04:32.289Z,1009.56
2016-10-19T08:05:32.313Z,1009.53
2016-10-19T08:06:32.335Z,1009.52
2016-10-19T08:07:32.353Z,1009.53
2016-10-19T08:08:32.375Z,1009.56
2016-10-19T08:09:32.399Z,1009.57
2016-10-19T08:10:32.419Z,1009.54
2016-10-19T08:11:32.439Z,1009.6
2016-10-19T08:12:32.463Z,1009.57
2016-10-19T08:13:32.735Z,1009.59
2016-10-19T08:14:32.503Z,1009.66
2016-10-19T08:15:32.526Z,1009.65
2016-10-19T08:16:32.546Z,1009.64
2016-10-19T08:17:32.568Z,1009.62
2016-10-19T08:18:32.588Z,1009.62
2016-10-19T08:19:32.612Z,1009.63
2016-10-19T08:20:32.632Z,1009.65
2016-10-19T08:21:32.652Z,1009.64
2016-10-19T08:22:32.924Z,1009.67
2016-10-19T08:23:32.698Z,1009.67
2016-10-19T08:24:32.719Z,1009.65
2016-10-19T08:25:32.749Z,1009.67
2016-10-19T08:26:32.760Z,1009.69
2016-10-19T08:27:32.781Z,1009.66
2016-10-19T08:28:32.805Z,1009.7
2016-10-19T08:29:32.825Z,1009.71
2016-10-19T08:30:32.845Z,1009.71
2016-10-19T08:31:32.869Z,1009.71
2016-10-19T08:32:32.889Z,1009.69
2016-10-19T08:34:32.933Z,1009.7
2016-10-19T08:35:32.954Z,1009.7
2016-10-19T08:36:32.975Z,1009.69
2016-10-19T08:37:32.995Z,1009.68
2016-10-19T08:38:33.016Z,1009.67
2016-10-19T08:39:33.038Z,1009.69
2016-10-19T08:40:33.059Z,1009.7
2016-10-19T08:41:33.083Z,1009.74
2016-10-19T08:42:33.102Z,1009.82
2016-10-19T08:43:33.123Z,1009.84
2016-10-19T08:44:33.145Z,1009.85
2016-10-19T08:45:33.169Z,1009.9
2016-10-19T08:46:33.188Z,1009.9
2016-10-19T08:47:33.211Z,1009.9
2016-10-19T08:48:33.231Z,1009.89
2016-10-19T08:50:33.275Z,1009.9
2016-10-19T08:51:33.298Z,1009.93
2016-10-19T08:52:33.320Z,1009.96
2016-10-19T08:53:33.339Z,1009.98
2016-10-19T08:54:33.362Z,1009.97
2016-10-19T08:55:33.384Z,1010.05
2016-10-19T08:56:33.406Z,1010.03
2016-10-19T08:57:33.427Z,1010.03
2016-10-19T08:58:33.698Z,1010.01
2016-10-19T08:59:33.470Z,1009.99
2016-10-19T09:00:33.490Z,1010.01
2016-10-19T09:01:33.512Z,1010.06
2016-10-19T09:02:33.535Z,1010.09
2016-10-19T09:03:33.558Z,1010.07
2016-10-19T09:04:33.576Z,1010.12
2016-10-19T09:06:33.621Z,1010.08
2016-10-19T09:07:33.639Z,1010.14
2016-10-19T09:08:33.664Z,1010.11
2016-10-19T09:09:33.683Z,1010.13
2016-10-19T09:10:33.707Z,1010.11
2016-10-19T09:11:33.728Z,1010.14
2016-10-19T09:12:33.750Z,1010.14
2016-10-19T09:13:33.771Z,1010.09
2016-10-19T09:14:33.791Z,1010.11
2016-10-19T09:15:33.816Z,1010.13
2016-10-19T09:16:33.834Z,1010.13
2016-10-19T09:17:33.858Z,1010.13
2016-10-19T09:18:33.880Z,1010.13
2016-10-19T09:19:33.900Z,1010.12
2016-10-19T09:20:33.924Z,1010.12
2016-10-19T09:22:34.215Z,1010.03
2016-10-19T09:23:33.990Z,1010.07
2016-10-19T09:24:34.009Z,1010.06
2016-10-19T09:25:34.034Z,1010.08
2016-10-19T09:26:34.056Z,1010.08
2016-10-19T09:27:34.078Z,1010.1
2016-10-19T09:28:34.100Z,1010.02
2016-10-19T09:29:34.121Z,1009.99
2016-10-19T09:30:34.145Z,1009.99
2016-10-19T09:31:34.166Z,1009.98
2016-10-19T09:32:34.187Z,1009.99
2016-10-19T09:33:34.209Z,1009.97
2016-10-19T09:34:34.232Z,1009.99
2016-10-19T09:35:34.256Z,1009.97
2016-10-19T09:37:34.301Z,1009.98
2016-10-19T09:38:34.319Z,1009.91
2016-10-19T09:39:34.345Z,1009.92
2016-10-19T09:40:34.366Z,1009.88
2016-10-19T09:41:34.393Z,1009.87
2016-10-19T09:42:34.413Z,1009.91
2016-10-19T09:43:34.433Z,1009.91
2016-10-19T09:44:34.456Z,1009.9
2016-10-19T09:45:34.478Z,1009.88
2016-10-19T09:46:34.501Z,1009.86
2016-10-19T09:47:34.524Z,1009.8
2016-10-19T09:48:34.549Z,1009.79
2016-10-19T09:49:34.571Z,1009.79
2016-10-19T09:50:34.595Z,1009.78
2016-10-19T09:51:34.615Z,1009.76
2016-10-19T09:52:34.639Z,1009.75
2016-10-19T09:53:34.663Z,1009.7
2016-10-19T09:54:34.684Z,1009.74
2016-10-19T09:55:34.708Z,1009.71
2016-10-19T09:56:34.732Z,1009.71
2016-10-19T09:57:34.755Z,1009.72
2016-10-19T09:58:34.779Z,1009.67
2016-10-19T09:59:34.802Z,1009.67
2016-10-19T10:00:34.825Z,1009.64
2016-10-19T10:01:34.848Z,1009.59
2016-10-19T10:02:34.872Z,1009.55
2016-10-19T10:03:34.894Z,1009.56
2016-10-19T10:04:34.915Z,1009.52
2016-10-19T10:05:34.941Z,1009.52
2016-10-19T10:06:34.965Z,1009.53
2016-10-19T10:07:34.987Z,1009.53
2016-10-19T10:09:35.032Z,1009.53
2016-10-19T10:10:35.058Z,1009.51
2016-10-19T10:11:35.080Z,1009.57
2016-10-19T10:12:35.102Z,1009.58
2016-10-19T10:13:35.126Z,1009.6
2016-10-19T10:14:35.151Z,1009.58
2016-10-19T10:15:35.172Z,1009.59
2016-10-19T10:16:35.197Z,1009.6
2016-10-19T10:17:35.221Z,1009.55
2016-10-19T10:18:35.244Z,1009.64
2016-10-19T10:19:35.268Z,1009.65
2016-10-19T10:20:35.291Z,1009.62
2016-10-19T10:21:35.315Z,1009.67
2016-10-19T10:22:35.335Z,1009.65
2016-10-19T10:23:35.361Z,1009.67
2016-10-19T10:25:35.406Z,1009.67
2016-10-19T10:26:35.431Z,1009.67
2016-10-19T10:27:35.453Z,1009.66
2016-10-19T10:28:35.477Z,1009.69
2016-10-19T10:29:35.501Z,1009.7
2016-10-19T10:30:35.523Z,1009.71
2016-10-19T10:31:35.549Z,1009.69
2016-10-19T10:32:35.570Z,1009.71
2016-10-19T10:33:35.593Z,1009.67
2016-10-19T10:34:35.617Z,1009.67
2016-10-19T10:35:35.643Z,1009.68
2016-10-19T10:36:35.666Z,1009.7
2016-10-19T10:37:35.690Z,1009.68
2016-10-19T10:38:35.711Z,1009.7
2016-10-19T10:39:35.735Z,1009.69
2016-10-19T10:41:35.784Z,1009.67
2016-10-19T10:42:35.808Z,1009.66
2016-10-19T10:43:35.829Z,1009.64
2016-10-19T10:44:35.853Z,1009.65
2016-10-19T10:45:35.878Z,1009.61
2016-10-19T10:46:35.900Z,1009.66
2016-10-19T10:47:35.926Z,1009.65
2016-10-19T10:48:35.947Z,1009.7
2016-10-19T10:49:35.973Z,1009.65
2016-10-19T10:50:35.994Z,1009.65
2016-10-19T10:51:36.020Z,1009.64
2016-10-19T10:52:36.043Z,1009.61
2016-10-19T10:53:36.065Z,1009.61
2016-10-19T10:54:36.091Z,1009.54
2016-10-19T10:55:36.114Z,1009.58
2016-10-19T10:57:36.160Z,1009.61
2016-10-19T10:58:36.184Z,1009.58
2016-10-19T10:59:36.209Z,1009.58
2016-10-19T11:00:36.232Z,1009.6
2016-10-19T11:01:36.254Z,1009.59
2016-10-19T11:02:36.279Z,1009.56
2016-10-19T11:03:36.301Z,1009.59
2016-10-19T11:04:36.325Z,1009.6
2016-10-19T11:05:36.349Z,1009.6
2016-10-19T11:06:36.373Z,1009.62
2016-10-19T11:07:36.397Z,1009.65
2016-10-19T11:08:36.420Z,1009.63
2016-10-19T11:09:36.446Z,1009.6
2016-10-19T11:10:36.468Z,1009.62
2016-10-19T11:12:36.518Z,1009.66
2016-10-19T11:13:36.541Z,1009.58
2016-10-19T11:14:36.565Z,1009.6
2016-10-19T11:15:36.587Z,1009.57
2016-10-19T11:16:36.610Z,1009.53
2016-10-19T11:17:36.634Z,1009.59
2016-10-19T11:18:36.660Z,1009.58
2016-10-19T11:19:36.684Z,1009.61
2016-10-19T11:20:36.705Z,1009.6
2016-10-19T11:21:36.731Z,1009.62
2016-10-19T11:22:36.753Z,1009.62
2016-10-19T11:23:36.777Z,1009.6
2016-10-19T11:24:36.800Z,1009.59
2016-10-19T11:25:36.824Z,1009.6
2016-10-19T11:26:36.850Z,1009.58
2016-10-19T11:27:36.874Z,1009.59
2016-10-19T11:28:36.897Z,1009.55
2016-10-19T11:29:36.919Z,1009.59
2016-10-19T11:30:36.946Z,1009.58
2016-10-19T11:31:36.969Z,1009.56
2016-10-19T11:32:36.992Z,1009.52
2016-10-19T11:33:37.017Z,1009.51
2016-10-19T11:34:37.039Z,1009.52
2016-10-19T11:35:37.064Z,1009.49
2016-10-19T11:36:37.086Z,1009.54
2016-10-19T11:37:37.362Z,1009.53
2016-10-19T11:38:37.134Z,1009.48
2016-10-19T11:39:37.159Z,1009.53
2016-10-19T11:40:37.183Z,1009.5
2016-10-19T11:41:37.205Z,1009.56
2016-10-19T11:42:37.227Z,1009.55
2016-10-19T11:44:37.277Z,1009.51
2016-10-19T11:45:37.299Z,1009.53
2016-10-19T11:46:37.322Z,1009.51
2016-10-19T11:47:37.348Z,1009.53
2016-10-19T11:48:37.369Z,1009.55
2016-10-19T11:49:37.395Z,1009.54
2016-10-19T11:50:37.417Z,1009.51
2016-10-19T11:51:37.439Z,1009.53
2016-10-19T11:52:37.463Z,1009.48
2016-10-19T11:53:37.487Z,1009.57
2016-10-19T11:54:37.509Z,1009.52
2016-10-19T11:55:37.535Z,1009.5
2016-10-19T11:56:37.557Z,1009.47
2016-10-19T11:57:37.582Z,1009.5
2016-10-19T11:58:37.605Z,1009.48
2016-10-19T12:00:37.650Z,1009.48
2016-10-19T12:01:37.675Z,1009.51
2016-10-19T12:02:37.699Z,1009.48
2016-10-19T12:03:37.723Z,1009.44
2016-10-19T12:04:37.743Z,1009.46
2016-10-19T12:05:37.769Z,1009.44
2016-10-19T12:06:37.790Z,1009.42
2016-10-19T12:07:37.816Z,1009.42
2016-10-19T12:08:37.839Z,1009.43
2016-10-19T12:09:37.860Z,1009.42
2016-10-19T12:10:37.886Z,1009.42
2016-10-19T12:11:37.908Z,1009.38
2016-10-19T12:12:37.930Z,1009.42
2016-10-19T12:13:37.956Z,1009.41
2016-10-19T12:14:37.978Z,1009.43
2016-10-19T12:16:38.024Z,1009.42
2016-10-19T12:17:38.048Z,1009.41
2016-10-19T12:18:38.074Z,1009.42
2016-10-19T12:19:38.096Z,1009.35
2016-10-19T12:20:38.118Z,1009.34
2016-10-19T12:21:38.143Z,1009.32
2016-10-19T12:22:38.168Z,1009.31
2016-10-19T12:23:38.188Z,1009.29
2016-10-19T12:24:38.212Z,1009.3
2016-10-19T12:25:38.236Z,1009.34
2016-10-19T12:26:38.258Z,1009.28
2016-10-19T12:27:38.282Z,1009.31
2016-10-19T12:28:38.308Z,1009.36
2016-10-19T12:29:38.330Z,1009.31
2016-10-19T12:30:38.355Z,1009.33
2016-10-19T12:32:38.401Z,1009.29
2016-10-19T12:33:38.426Z,1009.27
2016-10-19T12:34:38.447Z,1009.26
2016-10-19T12:35:38.473Z,1009.25
2016-10-19T12:36:38.498Z,1009.25
2016-10-19T12:37:38.518Z,1009.26
2016-10-19T12:38:38.544Z,1009.26
2016-10-19T12:39:38.569Z,1009.23
2016-10-19T12:40:38.590Z,1009.22
2016-10-19T12:41:38.613Z,1009.26
2016-10-19T12:42:38.639Z,1009.23
2016-10-19T12:43:38.661Z,1009.23
2016-10-19T12:44:38.685Z,1009.2
2016-10-19T12:45:38.708Z,1009.22
2016-10-19T12:47:38.758Z,1009.17
2016-10-19T12:48:38.781Z,1009.16
2016-10-19T12:49:38.805Z,1009.18
2016-10-19T12:50:38.829Z,1009.2
2016-10-19T12:51:38.853Z,1009.18